East Bangor, Pennsylvania
Current Conditions -  °F | °C
As of 1:51 AM on Sunday 26 Oct 2014 (Local Time) from KABE Reporting Station
Scattered Clouds Scattered Clouds  
Wind Chill: 15°   Ceiling: Unl
Heat Index: 15°   Visibility: 10mi
Dew Point:   Wind: 5mph
Humidity: 49%   Direction: 270°W
Pressure: 29.59"   Gusts: NA
Location:  40.8463°N, 75.1731°W
Report Text: KABE 260551Z 27004KT 10SM SCT100 15/04 A2959 RMK AO2 SLP020 T01500044 10172 20122 58004
Loading
Personal Weather Stations






























Interactive Weather Map
Tropical Storm Tracking
New forecast layout! Learn more

10-Day Weather Forecast

Advertisements
Track Severe Weather on mobile